createdAt,value
2023-04-28T00:00:53.849Z,26.04
2023-04-28T00:01:53.804Z,25.93
2023-04-28T00:02:54.105Z,25.98
2023-04-28T00:03:54.019Z,25.96
2023-04-28T00:04:53.877Z,25.95
2023-04-28T00:05:54.001Z,25.94
2023-04-28T00:06:53.923Z,25.99
2023-04-28T00:07:53.904Z,25.93
2023-04-28T00:08:53.907Z,25.95
2023-04-28T00:09:53.953Z,25.98
2023-04-28T00:10:54.007Z,25.96
2023-04-28T00:11:54.117Z,26.03
2023-04-28T00:12:54.044Z,25.99
2023-04-28T00:13:54.141Z,25.95
2023-04-28T00:14:54.068Z,26.00
2023-04-28T00:15:54.130Z,25.96
2023-04-28T00:16:54.339Z,25.99
2023-04-28T00:17:54.278Z,25.93
2023-04-28T00:18:54.197Z,25.98
2023-04-28T00:19:54.212Z,26.03
2023-04-28T00:20:54.194Z,25.97
2023-04-28T00:21:54.257Z,26.01
2023-04-28T00:22:54.193Z,26.00
2023-04-28T00:23:54.243Z,25.97
2023-04-28T00:24:54.392Z,25.98
2023-04-28T00:25:54.331Z,25.99
2023-04-28T00:26:54.319Z,26.01
2023-04-28T00:27:54.291Z,26.00
2023-04-28T00:28:55.335Z,26.04
2023-04-28T00:29:54.351Z,26.01
2023-04-28T00:30:54.398Z,26.00
2023-04-28T00:31:54.398Z,25.96
2023-04-28T00:32:54.384Z,25.93
2023-04-28T00:33:54.476Z,25.98
2023-04-28T00:34:54.499Z,25.96
2023-04-28T00:35:54.478Z,25.95
2023-04-28T00:36:54.442Z,25.99
2023-04-28T00:37:54.568Z,25.97
2023-04-28T00:38:54.469Z,25.96
2023-04-28T00:39:54.496Z,25.99
2023-04-28T00:40:54.584Z,26.00
2023-04-28T00:41:54.571Z,26.03
2023-04-28T00:42:54.563Z,26.01
2023-04-28T00:43:54.648Z,25.98
2023-04-28T00:44:54.869Z,25.93
2023-04-28T00:45:54.750Z,25.97
2023-04-28T00:46:54.699Z,25.96
2023-04-28T00:47:54.722Z,25.99
2023-04-28T00:48:54.681Z,26.04
2023-04-28T00:49:54.757Z,26.01
2023-04-28T00:50:54.758Z,26.00
2023-04-28T00:51:55.824Z,25.93
2023-04-28T00:52:54.737Z,25.93
2023-04-28T00:53:54.763Z,25.99
2023-04-28T00:54:54.851Z,26.00
2023-04-28T00:55:54.996Z,25.95
2023-04-28T00:56:54.808Z,25.95
2023-04-28T00:57:54.876Z,25.98
2023-04-28T00:58:55.011Z,25.97
2023-04-28T00:59:54.907Z,25.96
2023-04-28T01:00:54.962Z,25.96
2023-04-28T01:01:55.069Z,25.95
2023-04-28T01:02:55.122Z,25.97
2023-04-28T01:03:55.183Z,25.96
2023-04-28T01:04:55.083Z,26.00
2023-04-28T01:05:55.233Z,25.93
2023-04-28T01:06:55.107Z,25.95
2023-04-28T01:07:55.334Z,25.97
2023-04-28T01:08:55.153Z,25.98
2023-04-28T01:09:55.272Z,26.00
2023-04-28T01:10:55.271Z,25.96
2023-04-28T01:11:55.276Z,25.95
2023-04-28T01:12:55.261Z,25.96
2023-04-28T01:13:55.330Z,26.01
2023-04-28T01:14:55.282Z,25.97
2023-04-28T01:15:55.284Z,25.98
2023-04-28T01:16:55.459Z,25.92
2023-04-28T01:17:55.438Z,25.97
2023-04-28T01:18:55.385Z,25.95
2023-04-28T01:19:55.404Z,25.96
2023-04-28T01:20:55.478Z,25.97
2023-04-28T01:21:55.570Z,25.92
2023-04-28T01:22:55.524Z,25.97
2023-04-28T01:23:55.516Z,26.01
2023-04-28T01:24:55.462Z,25.98
2023-04-28T01:25:55.583Z,25.95
2023-04-28T01:26:55.773Z,25.99
2023-04-28T01:27:55.530Z,25.96
2023-04-28T01:28:55.665Z,25.97
2023-04-28T01:29:55.661Z,25.91
2023-04-28T01:30:55.575Z,25.91
2023-04-28T01:31:55.717Z,25.97
2023-04-28T01:32:55.767Z,25.96
2023-04-28T01:33:55.716Z,25.90
2023-04-28T01:34:55.637Z,25.93
2023-04-28T01:35:55.736Z,25.93
2023-04-28T01:36:56.003Z,25.97
2023-04-28T01:37:55.740Z,25.93
2023-04-28T01:38:56.920Z,25.95
2023-04-28T01:39:55.869Z,25.93
2023-04-28T01:40:55.847Z,25.95
2023-04-28T01:41:55.830Z,25.98
2023-04-28T01:42:55.954Z,25.95
2023-04-28T01:43:55.893Z,25.92
2023-04-28T01:44:55.915Z,25.91
2023-04-28T01:45:55.968Z,25.91
2023-04-28T01:46:55.953Z,25.95
2023-04-28T01:47:57.059Z,25.97
2023-04-28T01:48:56.035Z,25.92
2023-04-28T01:49:56.035Z,25.96
2023-04-28T01:50:56.018Z,25.95
2023-04-28T01:51:56.067Z,25.97
2023-04-28T01:52:56.117Z,25.92
2023-04-28T01:53:56.140Z,25.97
2023-04-28T01:54:56.163Z,26.01
2023-04-28T01:55:56.169Z,25.98
2023-04-28T01:56:56.165Z,25.95
2023-04-28T01:57:56.203Z,25.89
2023-04-28T01:58:56.227Z,25.93
2023-04-28T01:59:57.267Z,25.91
2023-04-28T02:00:56.253Z,25.91
2023-04-28T02:01:56.509Z,25.92
2023-04-28T02:02:56.588Z,25.98
2023-04-28T02:03:56.731Z,25.93
2023-04-28T02:04:56.431Z,25.93
2023-04-28T02:05:58.423Z,25.96
2023-04-28T02:06:56.401Z,25.96
2023-04-28T02:07:56.763Z,25.95
2023-04-28T02:08:56.459Z,25.95
2023-04-28T02:09:56.537Z,25.89
2023-04-28T02:10:56.482Z,25.93
2023-04-28T02:11:56.591Z,25.97
2023-04-28T02:12:56.466Z,25.98
2023-04-28T02:13:56.585Z,25.94
2023-04-28T02:14:56.504Z,25.97
2023-04-28T02:15:56.731Z,25.89
2023-04-28T02:16:56.660Z,25.95
2023-04-28T02:17:56.787Z,25.89
2023-04-28T02:18:56.639Z,25.95
2023-04-28T02:19:56.618Z,25.93
2023-04-28T02:20:56.634Z,25.92
2023-04-28T02:21:56.740Z,25.92
2023-04-28T02:22:56.759Z,25.89
2023-04-28T02:23:56.833Z,25.95
2023-04-28T02:24:56.815Z,25.93
2023-04-28T02:25:56.824Z,25.98
2023-04-28T02:26:57.756Z,25.96
2023-04-28T02:27:56.779Z,25.94
2023-04-28T02:28:56.956Z,25.90
2023-04-28T02:29:56.925Z,25.95
2023-04-28T02:30:56.952Z,25.90
2023-04-28T02:31:57.007Z,25.94
2023-04-28T02:32:57.994Z,25.87
2023-04-28T02:33:56.931Z,25.93
2023-04-28T02:34:57.068Z,25.90
2023-04-28T02:35:56.997Z,25.88
2023-04-28T02:36:57.043Z,25.95
2023-04-28T02:37:57.028Z,25.93
2023-04-28T02:38:57.061Z,25.98
2023-04-28T02:39:57.028Z,25.97
2023-04-28T02:40:57.158Z,25.93
2023-04-28T02:41:57.078Z,25.92
2023-04-28T02:42:57.179Z,25.89
2023-04-28T02:43:57.151Z,25.92
2023-04-28T02:44:57.241Z,25.92
2023-04-28T02:45:57.193Z,25.96
2023-04-28T02:46:57.455Z,25.97
2023-04-28T02:47:57.242Z,25.97
2023-04-28T02:48:57.427Z,25.96
2023-04-28T02:49:57.294Z,25.93
2023-04-28T02:50:57.294Z,25.96
2023-04-28T02:51:57.383Z,25.93
2023-04-28T02:52:57.370Z,25.96
2023-04-28T02:53:57.380Z,25.98
2023-04-28T02:54:58.398Z,25.93
2023-04-28T02:55:57.426Z,25.97
2023-04-28T02:56:57.547Z,25.98
2023-04-28T02:57:57.435Z,25.93
2023-04-28T02:58:57.598Z,25.90
2023-04-28T02:59:57.489Z,25.86
2023-04-28T03:00:57.580Z,25.96
2023-04-28T03:01:57.526Z,25.93
2023-04-28T03:02:57.702Z,25.97
2023-04-28T03:03:57.765Z,25.99
2023-04-28T03:04:57.725Z,25.91
2023-04-28T03:05:57.670Z,25.96
2023-04-28T03:06:57.731Z,25.98
2023-04-28T03:07:57.704Z,25.94
2023-04-28T03:08:57.762Z,25.97
2023-04-28T03:09:57.852Z,25.91
2023-04-28T03:10:57.742Z,25.86
2023-04-28T03:11:57.819Z,25.93
2023-04-28T03:12:57.764Z,25.89
2023-04-28T03:13:57.844Z,25.93
2023-04-28T03:14:58.916Z,25.97
2023-04-28T03:15:57.927Z,25.89
2023-04-28T03:16:57.962Z,25.93
2023-04-28T03:17:58.158Z,25.96
2023-04-28T03:18:57.880Z,25.93
2023-04-28T03:19:58.144Z,25.94
2023-04-28T03:20:57.960Z,25.90
2023-04-28T03:21:58.114Z,25.94
2023-04-28T03:22:58.046Z,25.93
2023-04-28T03:23:58.101Z,25.93
2023-04-28T03:24:58.095Z,25.86
2023-04-28T03:25:58.149Z,25.92
2023-04-28T03:26:58.518Z,25.91
2023-04-28T03:27:58.270Z,25.90
2023-04-28T03:28:58.162Z,25.90
2023-04-28T03:29:58.190Z,25.87
2023-04-28T03:30:58.385Z,25.93
2023-04-28T03:31:58.303Z,25.89
2023-04-28T03:32:58.315Z,25.94
2023-04-28T03:35:17.221Z,25.97
2023-04-28T03:36:28.579Z,25.96
2023-04-28T03:37:17.212Z,25.93
2023-04-28T03:38:17.171Z,25.84
2023-04-28T03:39:17.290Z,25.92
2023-04-28T03:40:17.306Z,25.97
2023-04-28T03:41:17.291Z,25.89
2023-04-28T03:42:17.343Z,25.89
2023-04-28T03:43:17.413Z,25.90
2023-04-28T03:44:17.602Z,25.90
2023-04-28T03:45:17.480Z,25.94
2023-04-28T03:46:17.521Z,25.92
2023-04-28T03:47:17.527Z,25.85
2023-04-28T03:48:17.714Z,25.93
2023-04-28T03:49:17.618Z,25.90
2023-04-28T03:50:17.612Z,25.89
2023-04-28T03:51:17.644Z,25.87
2023-04-28T03:52:17.687Z,25.96
2023-04-28T03:53:17.718Z,25.87
2023-04-28T03:54:17.860Z,25.84
2023-04-28T03:55:17.761Z,25.93
2023-04-28T03:56:17.800Z,25.94
2023-04-28T03:57:17.861Z,25.89
2023-04-28T03:58:17.903Z,25.81
2023-04-28T03:59:17.945Z,25.86
2023-04-28T04:00:17.900Z,25.93
2023-04-28T04:01:17.969Z,25.90
2023-04-28T04:02:18.012Z,25.85
2023-04-28T04:03:18.186Z,25.87
2023-04-28T04:04:18.475Z,25.89
2023-04-28T04:05:18.091Z,25.87
2023-04-28T04:06:18.050Z,25.90
2023-04-28T04:07:18.063Z,25.89
2023-04-28T04:08:18.108Z,25.89
2023-04-28T04:09:18.104Z,25.90
2023-04-28T04:10:18.229Z,25.91
2023-04-28T04:11:18.208Z,25.84
2023-04-28T04:12:18.193Z,25.93
2023-04-28T04:13:18.192Z,25.89
2023-04-28T04:14:18.343Z,25.83
2023-04-28T04:15:18.266Z,25.90
2023-04-28T04:16:18.323Z,25.91
2023-04-28T04:17:20.002Z,25.87
2023-04-28T04:18:18.325Z,25.86
2023-04-28T04:19:18.298Z,25.91
2023-04-28T04:20:18.409Z,25.90
2023-04-28T04:21:18.381Z,25.92
2023-04-28T04:22:18.355Z,25.94
2023-04-28T04:23:18.352Z,25.91
2023-04-28T04:24:18.673Z,25.94
2023-04-28T04:25:18.499Z,25.89
2023-04-28T04:26:18.472Z,25.89
2023-04-28T04:27:18.483Z,25.89
2023-04-28T04:28:18.505Z,25.85
2023-04-28T04:29:18.516Z,25.89
2023-04-28T04:30:18.568Z,25.89
2023-04-28T04:31:18.616Z,25.83
2023-04-28T04:32:18.617Z,25.87
2023-04-28T04:33:18.596Z,25.97
2023-04-28T04:34:18.743Z,25.95
2023-04-28T04:35:18.689Z,25.95
2023-04-28T04:36:18.689Z,25.86
2023-04-28T04:37:18.797Z,25.90
2023-04-28T04:38:18.792Z,25.94
2023-04-28T04:39:18.782Z,25.95
2023-04-28T04:40:18.831Z,25.91
2023-04-28T04:41:18.829Z,25.90
2023-04-28T04:42:25.391Z,25.87
2023-04-28T04:43:19.859Z,25.85
2023-04-28T04:44:19.172Z,25.85
2023-04-28T04:45:18.832Z,25.90
2023-04-28T04:46:18.887Z,25.88
2023-04-28T04:47:18.794Z,25.85
2023-04-28T04:48:18.831Z,25.91
2023-04-28T04:49:18.796Z,25.87
2023-04-28T04:50:18.817Z,25.86
2023-04-28T04:51:18.790Z,25.87
2023-04-28T04:52:18.810Z,25.93
2023-04-28T04:53:18.874Z,25.90
2023-04-28T04:54:18.853Z,25.85
2023-04-28T04:55:18.821Z,25.95
2023-04-28T04:56:18.825Z,25.93
2023-04-28T04:57:18.762Z,25.94
2023-04-28T04:58:18.792Z,25.94
2023-04-28T04:59:18.769Z,25.93
2023-04-28T05:00:18.784Z,25.92
2023-04-28T05:01:18.891Z,25.93
2023-04-28T05:02:18.842Z,25.92
2023-04-28T05:03:18.895Z,25.90
2023-04-28T05:04:19.112Z,25.93
2023-04-28T05:05:21.676Z,25.93
2023-04-28T05:06:18.972Z,25.91
2023-04-28T05:07:19.883Z,25.89
2023-04-28T05:08:19.001Z,25.94
2023-04-28T05:09:18.925Z,25.94
2023-04-28T05:10:18.721Z,25.94
2023-04-28T05:11:18.902Z,25.91
2023-04-28T05:12:18.814Z,25.94
2023-04-28T05:13:18.737Z,25.91
2023-04-28T05:14:18.882Z,25.90
2023-04-28T05:15:18.679Z,25.96
2023-04-28T05:16:18.915Z,25.59
2023-04-28T05:17:18.718Z,25.22
2023-04-28T05:18:18.692Z,25.07
2023-04-28T05:19:18.649Z,24.93
2023-04-28T05:20:18.635Z,24.97
2023-04-28T05:21:18.640Z,24.85
2023-04-28T05:22:18.622Z,24.73
2023-04-28T05:23:18.620Z,24.77
2023-04-28T05:24:18.863Z,24.71
2023-04-28T05:25:18.606Z,24.75
2023-04-28T05:26:18.697Z,24.73
2023-04-28T05:27:18.598Z,24.71
2023-04-28T05:28:20.114Z,24.71
2023-04-28T05:29:18.637Z,24.68
2023-04-28T05:30:18.644Z,24.71
2023-04-28T05:31:19.256Z,24.98
2023-04-28T05:32:18.587Z,25.23
2023-04-28T05:33:19.539Z,25.85
2023-04-28T05:34:18.672Z,26.29
2023-04-28T05:35:18.530Z,26.54
2023-04-28T05:36:18.640Z,26.91
2023-04-28T05:37:18.582Z,26.84
2023-04-28T05:38:18.550Z,27.13
2023-04-28T05:39:18.508Z,27.19
2023-04-28T05:40:18.504Z,27.63
2023-04-28T05:41:18.813Z,28.22
2023-04-28T05:42:18.523Z,28.54
2023-04-28T05:43:18.504Z,28.27
2023-04-28T05:44:18.612Z,28.45
2023-04-28T05:45:18.661Z,28.29
2023-04-28T05:46:30.073Z,27.80
2023-04-28T05:47:19.959Z,27.92
2023-04-28T05:48:18.515Z,28.29
2023-04-28T05:49:18.499Z,27.93
2023-04-28T05:50:18.439Z,28.45
2023-04-28T05:51:18.462Z,28.09
2023-04-28T05:52:18.449Z,28.27
2023-04-28T05:53:18.504Z,28.33
2023-04-28T05:54:18.824Z,28.57
2023-04-28T05:55:19.235Z,28.50
2023-04-28T05:56:18.423Z,28.41
2023-04-28T05:57:18.438Z,28.61
2023-04-28T05:58:18.366Z,28.59
2023-04-28T05:59:18.704Z,28.83
2023-04-28T06:00:18.403Z,28.79
2023-04-28T06:01:18.417Z,28.92
2023-04-28T06:02:19.433Z,29.04
2023-04-28T06:03:18.719Z,29.02
2023-04-28T06:04:18.970Z,29.06
2023-04-28T06:05:19.132Z,29.16
2023-04-28T06:06:18.608Z,29.15
2023-04-28T06:07:19.104Z,29.12
2023-04-28T06:08:18.314Z,29.50
2023-04-28T06:09:18.507Z,29.44
2023-04-28T06:10:18.397Z,29.48
2023-04-28T06:11:18.338Z,29.39
2023-04-28T06:12:19.181Z,29.53
2023-04-28T06:13:18.342Z,29.57
2023-04-28T06:14:18.609Z,29.55
2023-04-28T06:15:18.363Z,29.55
2023-04-28T06:16:19.031Z,29.64
2023-04-28T06:17:18.570Z,29.77
2023-04-28T06:18:18.645Z,29.84
2023-04-28T06:19:18.310Z,29.81
2023-04-28T06:20:18.314Z,29.92
2023-04-28T06:21:18.380Z,30.06
2023-04-28T06:22:18.335Z,29.98
2023-04-28T06:23:18.338Z,29.99
2023-04-28T06:24:18.608Z,30.10
2023-04-28T06:25:18.437Z,30.13
2023-04-28T06:26:18.731Z,30.14
2023-04-28T06:27:18.480Z,30.15
2023-04-28T06:28:18.462Z,30.24
2023-04-28T06:29:18.488Z,30.27
2023-04-28T06:30:18.569Z,30.26
2023-04-28T06:31:18.696Z,30.24
2023-04-28T06:32:19.076Z,30.36
2023-04-28T06:33:18.718Z,30.49
2023-04-28T06:34:18.945Z,30.62
2023-04-28T06:35:18.973Z,30.98
2023-04-28T06:36:18.910Z,30.69
2023-04-28T06:37:19.631Z,30.61
2023-04-28T06:38:19.060Z,30.54
2023-04-28T06:39:19.051Z,31.06
2023-04-28T06:40:19.155Z,30.72
2023-04-28T06:41:19.186Z,30.77
2023-04-28T06:42:19.655Z,30.77
2023-04-28T06:43:20.073Z,31.00
2023-04-28T06:44:20.514Z,31.04
2023-04-28T06:45:19.523Z,31.26
2023-04-28T06:46:19.646Z,31.76
2023-04-28T06:47:20.635Z,31.67
2023-04-28T06:48:21.058Z,31.94
2023-04-28T06:49:20.253Z,31.95
2023-04-28T06:50:20.151Z,31.97
2023-04-28T06:51:20.431Z,32.13
2023-04-28T06:52:24.809Z,32.12
2023-04-28T06:53:21.636Z,31.94
2023-04-28T06:54:20.277Z,32.01
2023-04-28T06:55:20.141Z,32.29
2023-04-28T06:56:20.425Z,32.23
2023-04-28T06:57:20.857Z,32.11
2023-04-28T06:58:20.541Z,32.25
2023-04-28T06:59:20.597Z,32.21
2023-04-28T07:00:21.967Z,32.15
2023-04-28T07:01:22.054Z,32.57
2023-04-28T07:02:20.531Z,32.45
2023-04-28T07:03:20.670Z,32.49
2023-04-28T07:04:20.835Z,32.44
2023-04-28T07:05:20.559Z,32.27
2023-04-28T07:06:20.813Z,32.41
2023-04-28T07:07:20.655Z,32.57
2023-04-28T07:08:21.074Z,32.30
2023-04-28T07:09:21.697Z,32.32
2023-04-28T07:10:20.753Z,32.56
2023-04-28T07:11:20.766Z,32.60
2023-04-28T07:12:20.788Z,32.60
2023-04-28T07:13:20.817Z,32.55
2023-04-28T07:14:20.818Z,32.54
2023-04-28T07:15:20.844Z,32.73
2023-04-28T07:16:21.007Z,32.59
2023-04-28T07:17:20.913Z,32.49
2023-04-28T07:18:21.044Z,33.22
2023-04-28T07:19:21.002Z,33.07
2023-04-28T07:20:20.959Z,33.56
2023-04-28T07:21:21.112Z,33.02
2023-04-28T07:22:20.992Z,32.95
2023-04-28T07:23:21.030Z,33.19
2023-04-28T07:24:21.074Z,33.54
2023-04-28T07:25:21.262Z,33.62
2023-04-28T07:26:22.120Z,33.54
2023-04-28T07:27:21.730Z,33.46
2023-04-28T07:28:22.140Z,33.37
2023-04-28T07:29:21.240Z,33.34
2023-04-28T07:30:27.896Z,33.46
2023-04-28T07:31:22.248Z,33.42
2023-04-28T07:32:21.660Z,33.08
2023-04-28T07:33:21.135Z,33.43
2023-04-28T07:34:22.687Z,33.43
2023-04-28T07:35:21.253Z,33.29
2023-04-28T07:36:21.038Z,33.31
2023-04-28T07:37:21.316Z,33.59
2023-04-28T07:38:21.217Z,33.48
2023-04-28T07:39:22.006Z,33.59
2023-04-28T07:40:21.012Z,33.69
2023-04-28T07:41:21.178Z,33.99
2023-04-28T07:42:22.731Z,33.94
2023-04-28T07:43:21.041Z,33.84
2023-04-28T07:44:21.030Z,33.76
2023-04-28T07:45:21.005Z,34.06
2023-04-28T07:46:21.006Z,33.87
2023-04-28T07:47:21.043Z,33.89
2023-04-28T07:48:21.127Z,34.01
2023-04-28T07:49:20.951Z,34.01
2023-04-28T07:50:20.940Z,34.09
2023-04-28T07:51:20.938Z,34.10
2023-04-28T07:52:21.071Z,35.19
2023-04-28T07:53:21.090Z,34.71
2023-04-28T07:54:20.913Z,34.59
2023-04-28T07:55:20.929Z,34.60
2023-04-28T07:56:20.901Z,34.55
2023-04-28T07:57:20.894Z,34.65
2023-04-28T07:58:20.888Z,34.65
2023-04-28T07:59:20.914Z,35.15
2023-04-28T08:00:20.957Z,35.33
2023-04-28T08:01:20.917Z,35.12
2023-04-28T08:02:21.248Z,34.26
2023-04-28T08:03:21.362Z,34.59
2023-04-28T08:04:21.293Z,34.97
2023-04-28T08:05:21.095Z,34.81
2023-04-28T08:06:20.936Z,35.03
2023-04-28T08:07:21.062Z,34.94
2023-04-28T08:08:21.064Z,35.02
2023-04-28T08:09:21.062Z,35.17
2023-04-28T08:10:21.124Z,35.17
2023-04-28T08:11:21.016Z,35.00
2023-04-28T08:12:21.018Z,35.07
2023-04-28T08:13:21.088Z,35.22
2023-04-28T08:14:21.574Z,35.19
2023-04-28T08:15:21.057Z,35.43
2023-04-28T08:16:21.114Z,35.09
2023-04-28T08:17:21.175Z,35.18
2023-04-28T08:18:21.728Z,35.91
2023-04-28T08:19:21.146Z,35.51
2023-04-28T08:20:23.876Z,35.72
2023-04-28T08:21:21.138Z,35.73
2023-04-28T08:22:21.178Z,35.61
2023-04-28T08:23:21.623Z,35.63
2023-04-28T08:24:23.089Z,35.84
2023-04-28T08:25:21.183Z,36.45
2023-04-28T08:26:21.064Z,36.04
2023-04-28T08:27:21.065Z,36.22
2023-04-28T08:28:21.058Z,36.04
2023-04-28T08:29:21.087Z,36.13
2023-04-28T08:30:33.144Z,35.98
2023-04-28T08:31:21.111Z,35.97
2023-04-28T08:32:21.042Z,36.01
2023-04-28T08:33:21.160Z,36.22
2023-04-28T08:34:21.413Z,35.75
2023-04-28T08:35:21.068Z,35.64
2023-04-28T08:36:20.995Z,35.39
2023-04-28T08:37:21.028Z,35.04
2023-04-28T08:38:22.707Z,35.12
2023-04-28T08:39:20.981Z,35.22
2023-04-28T08:40:21.055Z,35.26
2023-04-28T08:41:20.977Z,35.15
2023-04-28T08:42:21.009Z,34.84
2023-04-28T08:43:20.980Z,34.85
2023-04-28T08:44:20.980Z,34.71
2023-04-28T08:45:20.959Z,34.69
2023-04-28T08:46:21.613Z,34.66
2023-04-28T08:47:20.989Z,34.53
2023-04-28T08:48:20.919Z,34.43
2023-04-28T08:49:20.926Z,34.48
2023-04-28T08:50:20.883Z,34.36
2023-04-28T08:51:20.913Z,34.38
2023-04-28T08:52:20.963Z,34.26
2023-04-28T08:53:20.904Z,34.28
2023-04-28T08:54:26.004Z,34.16
2023-04-28T08:55:22.057Z,34.22
2023-04-28T08:56:20.856Z,34.13
2023-04-28T08:57:20.861Z,34.47
2023-04-28T08:58:21.170Z,33.94
2023-04-28T08:59:20.903Z,34.00
2023-04-28T09:00:20.856Z,33.93
2023-04-28T09:01:21.331Z,33.78
2023-04-28T09:02:21.121Z,33.79
2023-04-28T09:03:21.152Z,33.84
2023-04-28T09:04:21.460Z,33.70
2023-04-28T09:05:21.008Z,33.71
2023-04-28T09:06:21.109Z,33.66
2023-04-28T09:07:20.802Z,32.68
2023-04-28T09:08:20.793Z,32.82
2023-04-28T09:09:20.867Z,32.93
2023-04-28T09:10:20.798Z,33.19
2023-04-28T09:11:20.771Z,33.25
2023-04-28T09:12:20.787Z,33.23
2023-04-28T09:13:32.883Z,33.09
2023-04-28T09:14:20.736Z,33.15
2023-04-28T09:15:20.949Z,33.01
2023-04-28T09:16:20.735Z,33.37
2023-04-28T09:17:20.745Z,33.06
2023-04-28T09:18:20.842Z,33.13
2023-04-28T09:19:20.772Z,33.10
2023-04-28T09:20:21.174Z,32.95
2023-04-28T09:21:20.709Z,33.73
2023-04-28T09:22:26.688Z,33.46
2023-04-28T09:23:21.689Z,33.41
2023-04-28T09:24:20.667Z,32.42
2023-04-28T09:25:20.846Z,32.10
2023-04-28T09:26:20.751Z,31.85
2023-04-28T09:27:20.652Z,31.83
2023-04-28T09:28:21.135Z,31.45
2023-04-28T09:29:20.698Z,31.66
2023-04-28T09:30:20.851Z,31.73
2023-04-28T09:31:20.844Z,31.76
2023-04-28T09:32:21.241Z,31.69
2023-04-28T09:33:20.962Z,31.62
2023-04-28T09:34:20.939Z,31.58
2023-04-28T09:35:21.051Z,31.47
2023-04-28T09:36:21.042Z,31.47
2023-04-28T09:37:21.073Z,31.39
2023-04-28T09:38:21.179Z,31.41
2023-04-28T09:39:21.026Z,31.37
2023-04-28T09:40:21.092Z,31.31
2023-04-28T09:41:21.015Z,31.23
2023-04-28T09:42:20.998Z,31.19
2023-04-28T09:43:22.139Z,31.07
2023-04-28T09:44:20.992Z,31.06
2023-04-28T09:45:20.957Z,31.07
2023-04-28T09:46:20.980Z,30.95
2023-04-28T09:47:20.961Z,30.94
2023-04-28T09:48:21.656Z,30.89
2023-04-28T09:49:20.995Z,30.81
2023-04-28T09:50:20.926Z,30.88
2023-04-28T09:51:20.938Z,30.83
2023-04-28T09:52:20.949Z,30.85
2023-04-28T09:53:20.912Z,30.73
2023-04-28T09:54:20.897Z,30.75
2023-04-28T09:55:20.896Z,30.67
2023-04-28T09:56:20.904Z,30.64
2023-04-28T09:57:20.882Z,30.47
2023-04-28T09:58:20.916Z,30.54
2023-04-28T09:59:20.870Z,30.51
2023-04-28T10:00:20.896Z,30.43
2023-04-28T10:01:20.893Z,30.42
2023-04-28T10:03:23.382Z,30.47
2023-04-28T10:04:20.967Z,30.47
2023-04-28T10:05:20.922Z,30.31
2023-04-28T10:06:20.802Z,30.26
2023-04-28T10:07:20.909Z,30.22
2023-04-28T10:08:20.846Z,30.17
2023-04-28T10:09:20.894Z,30.10
2023-04-28T10:10:20.938Z,30.22
2023-04-28T10:11:20.788Z,30.24
2023-04-28T10:12:20.869Z,30.18
2023-04-28T10:13:20.794Z,30.14
2023-04-28T10:14:20.760Z,30.14
2023-04-28T10:15:20.732Z,30.09
2023-04-28T10:16:21.694Z,30.06
2023-04-28T10:17:20.897Z,30.01
2023-04-28T10:18:20.733Z,30.03
2023-04-28T10:19:20.728Z,30.05
2023-04-28T10:20:20.746Z,29.97
2023-04-28T10:21:20.703Z,29.96
2023-04-28T10:22:20.747Z,29.95
2023-04-28T10:23:20.739Z,29.93
2023-04-28T10:24:21.297Z,29.84
2023-04-28T10:25:20.668Z,29.92
2023-04-28T10:26:20.705Z,29.84
2023-04-28T10:27:20.723Z,29.87
2023-04-28T10:28:20.677Z,29.89
2023-04-28T10:29:20.758Z,29.76
2023-04-28T10:30:27.623Z,29.73
2023-04-28T10:31:21.685Z,29.68
2023-04-28T10:32:20.650Z,29.69
2023-04-28T10:33:20.645Z,29.65
2023-04-28T10:34:20.673Z,29.71
2023-04-28T10:35:20.597Z,29.64
2023-04-28T10:36:29.968Z,29.74
2023-04-28T10:37:21.630Z,29.62
2023-04-28T10:38:20.596Z,29.69
2023-04-28T10:39:20.740Z,29.66
2023-04-28T10:40:20.605Z,29.71
2023-04-28T10:41:20.585Z,29.65
2023-04-28T10:42:20.555Z,29.58
2023-04-28T10:43:20.547Z,29.60
2023-04-28T10:44:20.569Z,29.65
2023-04-28T10:45:20.532Z,29.65
2023-04-28T10:46:20.614Z,29.55
2023-04-28T10:47:20.667Z,29.52
2023-04-28T10:48:20.548Z,29.49
2023-04-28T10:49:20.508Z,29.56
2023-04-28T10:50:24.051Z,29.60
2023-04-28T10:51:21.507Z,29.57
2023-04-28T10:52:20.490Z,29.56
2023-04-28T10:53:20.479Z,29.56
2023-04-28T10:54:20.524Z,29.52
2023-04-28T10:56:20.501Z,29.45
2023-04-28T10:57:20.591Z,29.52
2023-04-28T10:58:20.444Z,29.57
2023-04-28T10:59:20.445Z,29.63
2023-04-28T11:00:20.480Z,29.64
2023-04-28T11:01:20.430Z,29.59
2023-04-28T11:02:20.503Z,29.59
2023-04-28T11:03:20.516Z,29.53
2023-04-28T11:04:20.684Z,29.54
2023-04-28T11:05:20.603Z,29.63
2023-04-28T11:06:20.458Z,29.58
2023-04-28T11:07:21.214Z,29.58
2023-04-28T11:08:20.753Z,29.57
2023-04-28T11:09:20.674Z,29.50
2023-04-28T11:10:20.386Z,29.51
2023-04-28T11:11:20.580Z,29.48
2023-04-28T11:12:20.436Z,29.59
2023-04-28T11:13:21.455Z,29.58
2023-04-28T11:14:20.717Z,29.61
2023-04-28T11:15:21.591Z,29.55
2023-04-28T11:16:20.616Z,29.55
2023-04-28T11:17:20.586Z,29.53
2023-04-28T11:18:20.596Z,29.48
2023-04-28T11:19:20.684Z,29.47
2023-04-28T11:20:20.662Z,29.46
2023-04-28T11:21:20.721Z,29.47
2023-04-28T11:22:20.778Z,29.43
2023-04-28T11:23:21.200Z,29.46
2023-04-28T11:24:21.201Z,29.43
2023-04-28T11:25:20.793Z,29.44
2023-04-28T11:26:20.799Z,29.42
2023-04-28T11:27:20.827Z,29.41
2023-04-28T11:28:20.863Z,29.43
2023-04-28T11:29:21.178Z,29.42
2023-04-28T11:30:20.940Z,29.40
2023-04-28T11:31:21.001Z,29.52
2023-04-28T11:32:20.974Z,29.47
2023-04-28T11:33:21.024Z,29.50
2023-04-28T11:34:21.092Z,29.46
2023-04-28T11:35:21.099Z,29.52
2023-04-28T11:36:21.081Z,29.50
2023-04-28T11:37:21.148Z,29.55
2023-04-28T11:38:21.168Z,29.51
2023-04-28T11:39:21.175Z,29.48
2023-04-28T11:40:22.215Z,29.45
2023-04-28T11:41:21.497Z,29.47
2023-04-28T11:42:21.284Z,29.49
2023-04-28T11:43:21.366Z,29.48
2023-04-28T11:44:21.438Z,29.43
2023-04-28T11:45:21.413Z,29.40
2023-04-28T11:46:21.538Z,29.37
2023-04-28T11:47:21.548Z,29.48
2023-04-28T11:48:21.551Z,29.45
2023-04-28T11:49:21.545Z,29.47
2023-04-28T11:50:21.581Z,29.40
2023-04-28T11:51:21.614Z,29.39
2023-04-28T11:52:21.716Z,29.45
2023-04-28T11:53:22.710Z,29.41
2023-04-28T11:54:21.740Z,29.37
2023-04-28T11:55:21.771Z,29.42
2023-04-28T11:56:21.819Z,29.39
2023-04-28T11:57:21.972Z,29.33
2023-04-28T11:58:21.918Z,29.40
2023-04-28T11:59:22.044Z,29.35
2023-04-28T12:00:22.015Z,29.30
2023-04-28T12:01:22.131Z,29.32
2023-04-28T12:02:22.203Z,29.30
2023-04-28T12:03:22.250Z,29.27
2023-04-28T12:04:22.274Z,29.25
2023-04-28T12:05:22.292Z,29.28
2023-04-28T12:06:22.264Z,29.29
2023-04-28T12:07:22.316Z,29.21
2023-04-28T12:08:22.300Z,29.26
2023-04-28T12:09:22.352Z,29.31
2023-04-28T12:10:22.427Z,29.25
2023-04-28T12:11:22.749Z,29.18
2023-04-28T12:12:26.435Z,29.26
2023-04-28T12:13:23.538Z,29.24
2023-04-28T12:14:22.546Z,29.31
2023-04-28T12:16:06.039Z,29.18
2023-04-28T12:16:23.508Z,29.32
2023-04-28T12:17:22.523Z,29.26
2023-04-28T12:18:22.492Z,29.29
2023-04-28T12:19:22.470Z,29.27
2023-04-28T12:20:22.478Z,29.20
2023-04-28T12:21:22.410Z,29.32
2023-04-28T12:22:22.412Z,29.32
2023-04-28T12:23:22.417Z,29.26
2023-04-28T12:24:22.522Z,29.24
2023-04-28T12:25:22.409Z,29.23
2023-04-28T12:26:22.393Z,29.10
2023-04-28T12:27:22.381Z,29.08
2023-04-28T12:28:22.427Z,29.04
2023-04-28T12:29:23.399Z,28.99
2023-04-28T12:30:22.405Z,28.98
2023-04-28T12:31:22.533Z,28.96
2023-04-28T12:32:22.449Z,29.00
2023-04-28T12:33:22.494Z,28.91
2023-04-28T12:34:22.543Z,28.95
2023-04-28T12:35:22.551Z,28.98
2023-04-28T12:36:22.639Z,28.95
2023-04-28T12:37:22.702Z,28.97
2023-04-28T12:38:22.645Z,28.92
2023-04-28T12:39:22.651Z,28.87
2023-04-28T12:40:22.699Z,28.94
2023-04-28T12:41:23.235Z,28.89
2023-04-28T12:42:22.692Z,28.90
2023-04-28T12:43:22.716Z,28.87
2023-04-28T12:44:23.263Z,28.75
2023-04-28T12:45:22.746Z,28.88
2023-04-28T12:46:22.933Z,28.81
2023-04-28T12:47:22.894Z,28.84
2023-04-28T12:48:22.798Z,28.86
2023-04-28T12:49:22.827Z,28.79
2023-04-28T12:50:22.844Z,28.79
2023-04-28T12:51:22.868Z,28.76
2023-04-28T12:52:22.858Z,28.80
2023-04-28T12:53:22.871Z,28.78
2023-04-28T12:54:22.887Z,28.77
2023-04-28T12:55:22.900Z,28.74
2023-04-28T12:56:22.963Z,28.72